Time;durP1;ratioP1;P1;durP2;ratioP2;P2;SDS_P1;SDS_P2;PMS_P1;PMS_P2;Temp;Humidity;BMP_temperature;BMP_pressure;BME280_temperature;BME280_humidity;BME280_pressure;Samples;Min_cycle;Max_cycle;Signal;HPM_P1;HPM_P2
2023/09/08 00:00:09;;;;;;;;;;;23.10;50.10;;;;;;1519810;76;1135;-53
2023/09/08 00:02:11;;;;;;;;;;;23.10;50.00;;;;;;1514183;78;1432;-51
2023/09/08 00:04:14;;;;;;;;;;;23.10;50.00;;;;;;1520983;78;1948;-51
2023/09/08 00:06:16;;;;;;;;;;;23.10;50.00;;;;;;1514785;78;640;-52
2023/09/08 00:08:18;;;;;;;;;;;23.10;50.00;;;;;;1511328;78;761;-52
2023/09/08 00:10:20;;;;;;;;;;;23.10;50.00;;;;;;1522412;77;1175;-52
2023/09/08 00:12:21;;;;;;;;;;;23.00;49.80;;;;;;1518077;78;777;-53
2023/09/08 00:14:23;;;;;;;;;;;23.10;50.00;;;;;;1523690;78;770;-53
2023/09/08 00:16:25;;;;;;;;;;;23.00;49.70;;;;;;1519441;78;1463;-52
2023/09/08 00:18:27;;;;;;;;;;;23.10;49.70;;;;;;1510194;78;764;-52
2023/09/08 00:20:29;;;;;;;;;;;23.10;49.80;;;;;;1521364;77;1178;-52
2023/09/08 00:22:31;;;;;;;;;;;23.00;49.60;;;;;;1519619;77;797;-53
2023/09/08 00:24:33;;;;;;;;;;;23.00;49.60;;;;;;1517165;77;1953;-52
2023/09/08 00:26:35;;;;;;;;;;;23.00;49.70;;;;;;1519545;77;741;-53
2023/09/08 00:28:36;;;;;;;;;;;23.00;49.50;;;;;;1513370;77;754;-50
2023/09/08 00:30:38;;;;;;;;;;;23.00;49.50;;;;;;1514474;77;1452;-53
2023/09/08 00:32:40;;;;;;;;;;;23.00;49.60;;;;;;1518740;77;782;-52
2023/09/08 00:34:42;;;;;;;;;;;23.00;49.50;;;;;;1515137;78;785;-52
2023/09/08 00:36:44;;;;;;;;;;;23.00;49.50;;;;;;1506948;78;766;-51
2023/09/08 00:38:46;;;;;;;;;;;23.00;49.50;;;;;;1519294;77;794;-53
2023/09/08 00:40:48;;;;;;;;;;;23.00;49.50;;;;;;1514324;77;1185;-53
2023/09/08 00:42:50;;;;;;;;;;;23.00;49.50;;;;;;1520421;77;825;-52
2023/09/08 00:44:52;;;;;;;;;;;23.10;49.40;;;;;;1519433;77;1944;-53
2023/09/08 00:46:53;;;;;;;;;;;23.00;49.40;;;;;;1520948;77;710;-53
2023/09/08 00:48:55;;;;;;;;;;;23.00;49.40;;;;;;1512925;77;777;-52
2023/09/08 00:50:57;;;;;;;;;;;23.00;49.40;;;;;;1515908;77;1242;-51
2023/09/08 00:52:59;;;;;;;;;;;23.10;49.40;;;;;;1522242;77;781;-52
2023/09/08 00:55:01;;;;;;;;;;;23.00;49.30;;;;;;1520203;78;762;-52
2023/09/08 00:57:06;;;;;;;;;;;23.00;49.30;;;;;;1520935;77;773;-53
2023/09/08 00:59:08;;;;;;;;;;;23.00;49.40;;;;;;1519453;77;1432;-51
2023/09/08 01:01:10;;;;;;;;;;;23.10;49.40;;;;;;1523209;77;1175;-53
2023/09/08 01:03:12;;;;;;;;;;;23.00;49.20;;;;;;1523847;77;770;-52
2023/09/08 01:05:14;;;;;;;;;;;23.00;49.20;;;;;;1515332;78;1942;-53
2023/09/08 01:07:16;;;;;;;;;;;23.00;49.20;;;;;;1522641;77;766;-53
2023/09/08 01:09:18;;;;;;;;;;;23.00;49.20;;;;;;1511441;77;763;-53
2023/09/08 01:11:20;;;;;;;;;;;23.00;49.20;;;;;;1525423;77;1150;-51
2023/09/08 01:13:22;;;;;;;;;;;23.00;49.20;;;;;;1524560;77;1462;-53
2023/09/08 01:15:24;;;;;;;;;;;23.00;49.10;;;;;;1515807;77;754;-51
2023/09/08 01:17:26;;;;;;;;;;;23.00;48.90;;;;;;1515914;77;658;-51
2023/09/08 01:19:28;;;;;;;;;;;23.00;49.00;;;;;;1519136;77;812;-52
2023/09/08 01:21:31;;;;;;;;;;;23.00;48.90;;;;;;1523218;77;1156;-51
2023/09/08 01:23:38;;;;;;;;;;;23.00;49.00;;;;;;1523783;76;1846;-54
2023/09/08 01:25:53;;;;;;;;;;;23.00;48.90;;;;;;1513252;78;1960;-54
2023/09/08 01:27:55;;;;;;;;;;;23.00;49.20;;;;;;1513916;77;1530;-54
2023/09/08 01:29:57;;;;;;;;;;;23.00;48.90;;;;;;1490049;78;1256;-54
2023/09/08 01:32:00;;;;;;;;;;;23.00;49.00;;;;;;1513938;77;739;-53
2023/09/08 01:34:06;;;;;;;;;;;23.00;48.80;;;;;;1513548;77;808;-54
2023/09/08 01:36:06;;;;;;;;;;;23.00;49.00;;;;;;1505853;78;1618;-53
2023/09/08 01:38:07;;;;;;;;;;;23.00;48.80;;;;;;1516161;77;781;-54
2023/09/08 01:40:10;;;;;;;;;;;23.00;48.80;;;;;;1508757;77;1436;-53
2023/09/08 01:42:12;;;;;;;;;;;23.00;48.70;;;;;;1511910;77;708;-54
2023/09/08 01:44:14;;;;;;;;;;;23.00;48.70;;;;;;1514159;77;769;-53
2023/09/08 01:46:16;;;;;;;;;;;22.90;48.80;;;;;;1514749;77;1957;-52
2023/09/08 01:48:18;;;;;;;;;;;23.00;48.70;;;;;;1518116;77;651;-53
2023/09/08 01:50:22;;;;;;;;;;;22.90;48.50;;;;;;1512899;77;1247;-52
2023/09/08 01:52:23;;;;;;;;;;;23.00;48.60;;;;;;1511774;77;1626;-53
2023/09/08 01:54:25;;;;;;;;;;;22.90;48.70;;;;;;1509240;77;1404;-52
2023/09/08 01:56:27;;;;;;;;;;;22.90;48.60;;;;;;1517302;77;770;-53
2023/09/08 01:58:30;;;;;;;;;;;22.90;48.60;;;;;;1509634;77;800;-53
2023/09/08 02:00:32;;;;;;;;;;;23.00;48.60;;;;;;1510861;78;1174;-52
2023/09/08 02:02:34;;;;;;;;;;;22.90;48.40;;;;;;1515143;78;804;-53
2023/09/08 02:04:36;;;;;;;;;;;23.00;48.40;;;;;;1504563;78;792;-53
2023/09/08 02:06:38;;;;;;;;;;;22.90;48.40;;;;;;1517029;77;1942;-53
2023/09/08 02:08:40;;;;;;;;;;;22.90;48.40;;;;;;1515898;78;1422;-53
2023/09/08 02:10:41;;;;;;;;;;;22.90;48.30;;;;;;1516533;78;1140;-53
2023/09/08 02:12:43;;;;;;;;;;;22.90;48.30;;;;;;1516892;78;778;-53
2023/09/08 02:14:45;;;;;;;;;;;22.90;48.20;;;;;;1517130;77;767;-52
2023/09/08 02:16:47;;;;;;;;;;;22.90;48.20;;;;;;1515701;78;767;-54
2023/09/08 02:18:50;;;;;;;;;;;22.90;48.20;;;;;;1515693;78;802;-53
2023/09/08 02:20:52;;;;;;;;;;;22.90;48.20;;;;;;1502090;78;1156;-53
2023/09/08 02:22:54;;;;;;;;;;;22.90;48.20;;;;;;1510646;78;1398;-52
2023/09/08 02:24:58;;;;;;;;;;;22.90;48.10;;;;;;1516018;77;1932;-53
2023/09/08 02:26:59;;;;;;;;;;;22.90;48.10;;;;;;1514077;78;766;-53
2023/09/08 02:29:01;;;;;;;;;;;22.90;48.20;;;;;;1516599;78;759;-53
2023/09/08 02:31:03;;;;;;;;;;;22.80;48.00;;;;;;1505061;78;1183;-53
2023/09/08 02:33:05;;;;;;;;;;;22.90;48.10;;;;;;1520022;78;778;-53
2023/09/08 02:35:07;;;;;;;;;;;22.90;48.10;;;;;;1507376;77;642;-52
2023/09/08 02:37:09;;;;;;;;;;;22.90;48.10;;;;;;1519688;76;1433;-53
2023/09/08 02:39:11;;;;;;;;;;;22.90;48.00;;;;;;1520237;77;784;-52
2023/09/08 02:41:13;;;;;;;;;;;22.90;48.00;;;;;;1509254;77;1274;-53
2023/09/08 02:43:15;;;;;;;;;;;22.90;48.00;;;;;;1512322;77;774;-52
2023/09/08 02:45:16;;;;;;;;;;;22.80;47.80;;;;;;1503427;77;1937;-53
2023/09/08 02:47:18;;;;;;;;;;;22.90;48.00;;;;;;1507403;78;773;-53
2023/09/08 02:49:20;;;;;;;;;;;22.90;48.00;;;;;;1513734;77;817;-53
2023/09/08 02:51:22;;;;;;;;;;;22.80;47.90;;;;;;1513817;77;1450;-51
2023/09/08 02:53:28;;;;;;;;;;;22.90;47.80;;;;;;1501562;77;768;-51
2023/09/08 02:55:27;;;;;;;;;;;22.80;47.70;;;;;;1520399;78;1753;-53
2023/09/08 02:57:29;;;;;;;;;;;22.80;47.80;;;;;;1521147;77;751;-53
2023/09/08 02:59:31;;;;;;;;;;;22.80;47.80;;;;;;1520244;76;1142;-53
2023/09/08 03:01:33;;;;;;;;;;;22.90;48.00;;;;;;1516932;77;773;-53
2023/09/08 03:03:35;;;;;;;;;;;22.80;47.80;;;;;;1519065;77;763;-52
2023/09/08 03:05:37;;;;;;;;;;;22.90;47.80;;;;;;1515368;77;1950;-52
2023/09/08 03:07:39;;;;;;;;;;;22.80;47.80;;;;;;1511756;78;744;-52
2023/09/08 03:09:41;;;;;;;;;;;22.90;47.80;;;;;;1521395;78;1164;-54
2023/09/08 03:11:42;;;;;;;;;;;22.90;47.80;;;;;;1521613;77;762;-52
2023/09/08 03:13:44;;;;;;;;;;;22.90;47.70;;;;;;1516469;77;757;-54
2023/09/08 03:15:46;;;;;;;;;;;22.80;47.50;;;;;;1521512;77;774;-53
2023/09/08 03:17:48;;;;;;;;;;;22.90;47.80;;;;;;1523627;77;748;-51
2023/09/08 03:19:50;;;;;;;;;;;22.90;47.70;;;;;;1517870;77;1423;-52
2023/09/08 03:21:52;;;;;;;;;;;22.70;47.60;;;;;;1522232;77;767;-54
2023/09/08 03:23:54;;;;;;;;;;;22.90;47.70;;;;;;1520664;77;735;-53
2023/09/08 03:25:56;;;;;;;;;;;22.80;47.50;;;;;;1518741;77;1942;-53
2023/09/08 03:27:57;;;;;;;;;;;22.80;47.50;;;;;;1491986;78;794;-52
2023/09/08 03:29:59;;;;;;;;;;;22.80;47.50;;;;;;1501303;77;1173;-53
2023/09/08 03:32:01;;;;;;;;;;;22.80;47.50;;;;;;1509031;77;763;-52
2023/09/08 03:34:03;;;;;;;;;;;22.90;47.70;;;;;;1507518;77;1438;-51
2023/09/08 03:36:05;;;;;;;;;;;22.70;47.30;;;;;;1510049;77;767;-54
2023/09/08 03:38:07;;;;;;;;;;;22.80;47.40;;;;;;1488480;78;794;-52
2023/09/08 03:40:09;;;;;;;;;;;22.80;47.30;;;;;;1512167;77;1177;-52
2023/09/08 03:42:11;;;;;;;;;;;22.90;47.50;;;;;;1513615;77;669;-52
2023/09/08 03:44:13;;;;;;;;;;;22.70;47.30;;;;;;1484181;78;795;-54
2023/09/08 03:46:14;;;;;;;;;;;22.80;47.20;;;;;;1500111;77;1957;-53
2023/09/08 03:48:16;;;;;;;;;;;22.70;47.30;;;;;;1504878;77;1447;-52
2023/09/08 03:50:18;;;;;;;;;;;22.80;47.20;;;;;;1512635;77;1176;-52
2023/09/08 03:52:20;;;;;;;;;;;22.80;47.20;;;;;;1524895;77;809;-54
2023/09/08 03:54:22;;;;;;;;;;;22.80;47.20;;;;;;1509201;77;781;-52
2023/09/08 03:56:24;;;;;;;;;;;22.70;47.20;;;;;;1513182;77;777;-53
2023/09/08 03:58:26;;;;;;;;;;;22.80;47.10;;;;;;1514866;77;788;-54
2023/09/08 04:00:28;;;;;;;;;;;22.80;47.10;;;;;;1483199;78;1238;-53
2023/09/08 04:02:29;;;;;;;;;;;22.70;47.10;;;;;;1554132;75;1502;-53
2023/09/08 04:04:31;;;;;;;;;;;22.80;47.10;;;;;;1548635;75;967;-52
2023/09/08 04:06:33;;;;;;;;;;;22.70;47.10;;;;;;1535955;75;1955;-52
2023/09/08 04:08:35;;;;;;;;;;;22.70;47.20;;;;;;1548046;75;809;-52
2023/09/08 04:10:37;;;;;;;;;;;22.80;47.50;;;;;;1539012;75;1166;-53
2023/09/08 04:12:39;;;;;;;;;;;22.80;47.20;;;;;;1546276;75;775;-52
2023/09/08 04:14:41;;;;;;;;;;;22.80;47.10;;;;;;1546398;75;759;-53
2023/09/08 04:16:43;;;;;;;;;;;22.80;47.10;;;;;;1549655;75;1545;-53
2023/09/08 04:18:45;;;;;;;;;;;22.80;47.10;;;;;;1546119;75;767;-53
2023/09/08 04:20:47;;;;;;;;;;;22.80;47.10;;;;;;1540731;75;1170;-52
2023/09/08 04:22:49;;;;;;;;;;;22.80;47.10;;;;;;1548305;75;783;-52
2023/09/08 04:24:50;;;;;;;;;;;22.70;47.30;;;;;;1549153;75;778;-53
2023/09/08 04:26:52;;;;;;;;;;;22.40;46.90;;;;;;1547503;75;1960;-53
2023/09/08 04:28:54;;;;;;;;;;;22.80;47.20;;;;;;1547481;75;1422;-52
2023/09/08 04:30:56;;;;;;;;;;;22.80;47.30;;;;;;1549340;75;1181;-52
2023/09/08 04:32:58;;;;;;;;;;;22.80;47.40;;;;;;1545558;75;760;-52
2023/09/08 04:35:00;;;;;;;;;;;22.80;47.50;;;;;;1549435;76;751;-54
2023/09/08 04:37:02;;;;;;;;;;;22.80;47.90;;;;;;1549092;75;756;-53
2023/09/08 04:39:04;;;;;;;;;;;22.80;48.30;;;;;;1546583;75;800;-52
2023/09/08 04:41:06;;;;;;;;;;;22.80;48.30;;;;;;1545767;75;1133;-53
2023/09/08 04:43:07;;;;;;;;;;;22.80;48.70;;;;;;1544668;75;1406;-53
2023/09/08 04:45:10;;;;;;;;;;;22.80;48.90;;;;;;1547176;75;650;-54
2023/09/08 04:47:12;;;;;;;;;;;22.80;49.40;;;;;;1545028;75;1939;-52
2023/09/08 04:49:13;;;;;;;;;;;22.70;48.90;;;;;;1539526;75;781;-52
2023/09/08 04:51:15;;;;;;;;;;;22.70;49.10;;;;;;1541858;75;1174;-51
2023/09/08 04:53:17;;;;;;;;;;;22.80;49.10;;;;;;1547661;75;822;-52
2023/09/08 04:55:19;;;;;;;;;;;22.80;49.20;;;;;;1538718;75;794;-53
2023/09/08 04:57:21;;;;;;;;;;;22.80;49.20;;;;;;1545942;75;1409;-53
2023/09/08 04:59:23;;;;;;;;;;;22.80;49.30;;;;;;1536784;75;756;-52
2023/09/08 05:01:25;;;;;;;;;;;22.80;49.90;;;;;;1548321;75;1224;-51
2023/09/08 05:03:27;;;;;;;;;;;22.90;50.20;;;;;;1542185;75;753;-54
2023/09/08 05:05:28;;;;;;;;;;;22.80;49.90;;;;;;1538555;75;867;-53
2023/09/08 05:07:30;;;;;;;;;;;22.90;49.90;;;;;;1533731;75;1935;-53
2023/09/08 05:09:33;;;;;;;;;;;22.80;50.60;;;;;;1547025;75;1184;-53
2023/09/08 05:11:35;;;;;;;;;;;22.80;50.70;;;;;;1543468;75;1453;-52
2023/09/08 05:13:37;;;;;;;;;;;22.80;50.30;;;;;;1548911;75;732;-52
2023/09/08 05:15:42;;;;;;;;;;;22.80;50.30;;;;;;1542607;75;758;-51
2023/09/08 05:17:43;;;;;;;;;;;22.80;50.30;;;;;;1549621;75;1584;-52
2023/09/08 05:19:45;;;;;;;;;;;22.80;50.50;;;;;;1547157;75;1142;-53
2023/09/08 05:21:46;;;;;;;;;;;22.80;50.10;;;;;;1548755;75;792;-54
2023/09/08 05:23:48;;;;;;;;;;;22.90;50.10;;;;;;1549159;75;744;-53
2023/09/08 05:25:50;;;;;;;;;;;22.90;50.30;;;;;;1546294;75;1419;-54
2023/09/08 05:27:52;;;;;;;;;;;22.90;50.30;;;;;;1544146;75;1947;-53
2023/09/08 05:29:54;;;;;;;;;;;22.90;50.20;;;;;;1546271;75;1200;-52
2023/09/08 05:31:56;;;;;;;;;;;22.80;50.00;;;;;;1542171;75;767;-53
2023/09/08 05:33:58;;;;;;;;;;;22.90;50.10;;;;;;1544612;75;778;-53
2023/09/08 05:36:00;;;;;;;;;;;22.90;50.00;;;;;;1540178;75;762;-51
2023/09/08 05:38:02;;;;;;;;;;;22.90;49.90;;;;;;1542482;75;778;-53
2023/09/08 05:40:05;;;;;;;;;;;22.90;49.80;;;;;;1540689;75;1438;-52
2023/09/08 05:42:06;;;;;;;;;;;22.90;49.80;;;;;;1547161;75;747;-53
2023/09/08 05:44:08;;;;;;;;;;;23.00;49.80;;;;;;1542218;75;817;-52
2023/09/08 05:46:10;;;;;;;;;;;23.00;49.70;;;;;;1547319;75;1947;-51
2023/09/08 05:48:12;;;;;;;;;;;23.00;49.60;;;;;;1544195;75;685;-53
2023/09/08 05:50:14;;;;;;;;;;;23.00;49.50;;;;;;1543567;75;1180;-53
2023/09/08 05:52:16;;;;;;;;;;;23.00;49.50;;;;;;1548350;75;765;-53
2023/09/08 05:54:18;;;;;;;;;;;23.00;49.40;;;;;;1544072;75;1434;-51
2023/09/08 05:56:22;;;;;;;;;;;23.10;49.50;;;;;;1537596;75;711;-53
2023/09/08 05:58:27;;;;;;;;;;;23.10;49.60;;;;;;1533739;76;766;-53
2023/09/08 06:00:28;;;;;;;;;;;23.10;49.60;;;;;;1547508;76;1486;-52
2023/09/08 06:02:30;;;;;;;;;;;23.10;49.70;;;;;;1539941;75;763;-52
2023/09/08 06:04:32;;;;;;;;;;;23.20;49.70;;;;;;1549725;75;707;-52
2023/09/08 06:06:34;;;;;;;;;;;23.10;49.80;;;;;;1549346;75;1927;-52
2023/09/08 06:08:36;;;;;;;;;;;23.20;49.80;;;;;;1550281;75;1425;-51
2023/09/08 06:10:38;;;;;;;;;;;23.10;49.90;;;;;;1547397;75;1140;-53
2023/09/08 06:12:40;;;;;;;;;;;23.20;50.00;;;;;;1545535;75;745;-53
2023/09/08 06:14:42;;;;;;;;;;;23.10;50.00;;;;;;1545652;75;773;-52
2023/09/08 06:16:44;;;;;;;;;;;23.10;50.20;;;;;;1540281;75;775;-53
2023/09/08 06:18:46;;;;;;;;;;;23.10;50.30;;;;;;1546225;75;770;-53
2023/09/08 06:20:47;;;;;;;;;;;23.10;50.40;;;;;;1541164;76;1160;-53
2023/09/08 06:22:49;;;;;;;;;;;23.10;50.50;;;;;;1546206;75;1465;-53
2023/09/08 06:24:51;;;;;;;;;;;23.10;50.60;;;;;;1539353;75;777;-52
2023/09/08 06:26:53;;;;;;;;;;;23.10;50.60;;;;;;1548905;75;1932;-52
2023/09/08 06:28:55;;;;;;;;;;;23.10;50.70;;;;;;1545847;75;780;-52
2023/09/08 06:30:57;;;;;;;;;;;23.10;50.70;;;;;;1540003;75;1143;-53
2023/09/08 06:32:59;;;;;;;;;;;23.10;50.90;;;;;;1545202;75;752;-52
2023/09/08 06:35:01;;;;;;;;;;;23.10;51.10;;;;;;1548938;76;768;-53
2023/09/08 06:37:02;;;;;;;;;;;23.10;51.30;;;;;;1545262;75;1465;-53
2023/09/08 06:39:04;;;;;;;;;;;23.10;51.40;;;;;;1550234;75;651;-52
2023/09/08 06:41:10;;;;;;;;;;;23.00;51.30;;;;;;1548106;75;1172;-51
2023/09/08 06:43:12;;;;;;;;;;;23.00;51.40;;;;;;1551459;75;770;-53
2023/09/08 06:45:14;;;;;;;;;;;23.00;51.50;;;;;;1548636;75;781;-53
2023/09/08 06:47:16;;;;;;;;;;;23.10;51.70;;;;;;1550346;75;1943;-53
2023/09/08 06:49:18;;;;;;;;;;;23.10;51.60;;;;;;1550969;75;721;-52
2023/09/08 06:51:20;;;;;;;;;;;23.70;51.30;;;;;;1542723;75;1448;-52
2023/09/08 06:53:23;;;;;;;;;;;25.90;47.80;;;;;;1533358;75;780;-53
2023/09/08 06:55:25;;;;;;;;;;;28.30;42.80;;;;;;1542132;75;1457;-52
2023/09/08 06:57:27;;;;;;;;;;;30.50;37.50;;;;;;1544079;75;763;-51
2023/09/08 06:59:33;;;;;;;;;;;32.20;34.30;;;;;;1548855;75;768;-54
2023/09/08 07:01:33;;;;;;;;;;;33.30;31.70;;;;;;1546612;75;1288;-52
2023/09/08 07:03:36;;;;;;;;;;;33.20;30.90;;;;;;1548664;75;1407;-54
2023/09/08 07:05:41;;;;;;;;;;;31.00;32.80;;;;;;1542887;75;750;-52
2023/09/08 07:07:43;;;;;;;;;;;29.00;35.90;;;;;;1543794;75;1955;-53
2023/09/08 07:09:45;;;;;;;;;;;27.70;38.80;;;;;;1543749;75;1160;-51
2023/09/08 07:11:47;;;;;;;;;;;26.90;40.80;;;;;;1549478;75;782;-53
2023/09/08 07:13:49;;;;;;;;;;;26.30;42.50;;;;;;1546601;75;757;-53
2023/09/08 07:15:50;;;;;;;;;;;25.80;43.00;;;;;;1543529;76;765;-52
2023/09/08 07:17:52;;;;;;;;;;;25.50;44.20;;;;;;1543813;75;1416;-52
2023/09/08 07:19:54;;;;;;;;;;;25.30;45.10;;;;;;1538766;75;1161;-52
2023/09/08 07:21:56;;;;;;;;;;;25.20;45.60;;;;;;1547485;75;742;-52
2023/09/08 07:23:58;;;;;;;;;;;25.00;46.00;;;;;;1541567;76;758;-52
2023/09/08 07:26:00;;;;;;;;;;;24.90;47.00;;;;;;1542245;76;733;-52
2023/09/08 07:28:02;;;;;;;;;;;24.80;47.20;;;;;;1548930;75;1955;-52
2023/09/08 07:30:04;;;;;;;;;;;24.80;47.40;;;;;;1549812;75;1168;-52
2023/09/08 07:32:06;;;;;;;;;;;24.80;48.30;;;;;;1548178;75;1411;-53
2023/09/08 07:34:07;;;;;;;;;;;24.60;48.40;;;;;;1546668;75;785;-54
2023/09/08 07:36:10;;;;;;;;;;;24.60;48.50;;;;;;1549646;75;777;-52
2023/09/08 07:38:12;;;;;;;;;;;24.60;48.70;;;;;;1536610;75;744;-53
2023/09/08 07:40:13;;;;;;;;;;;24.50;48.90;;;;;;1542312;75;1126;-52
2023/09/08 07:42:15;;;;;;;;;;;24.60;49.00;;;;;;1547607;75;733;-52
2023/09/08 07:44:17;;;;;;;;;;;24.60;49.30;;;;;;1547504;75;713;-53
2023/09/08 07:46:19;;;;;;;;;;;24.50;49.40;;;;;;1542452;75;1439;-52
2023/09/08 07:48:21;;;;;;;;;;;24.60;49.70;;;;;;1537987;75;1939;-52
2023/09/08 07:50:24;;;;;;;;;;;24.60;50.10;;;;;;1547473;75;1211;-51
2023/09/08 07:52:26;;;;;;;;;;;24.60;50.10;;;;;;1547971;75;799;-53
2023/09/08 07:54:28;;;;;;;;;;;24.60;49.90;;;;;;1551839;75;807;-52
2023/09/08 07:56:29;;;;;;;;;;;24.60;50.10;;;;;;1553482;75;770;-52
2023/09/08 07:58:32;;;;;;;;;;;24.60;50.30;;;;;;1545292;75;739;-53
2023/09/08 08:00:33;;;;;;;;;;;24.60;50.50;;;;;;1537949;75;1497;-52
2023/09/08 08:02:35;;;;;;;;;;;24.70;50.20;;;;;;1549026;75;764;-53
2023/09/08 08:04:37;;;;;;;;;;;24.70;50.60;;;;;;1557578;75;810;-53
2023/09/08 08:06:39;;;;;;;;;;;24.70;50.00;;;;;;1546531;76;764;-52
2023/09/08 08:08:41;;;;;;;;;;;24.60;50.40;;;;;;1547038;75;1960;-51
2023/09/08 08:10:43;;;;;;;;;;;24.60;50.70;;;;;;1550449;76;1165;-51
2023/09/08 08:12:45;;;;;;;;;;;24.60;50.60;;;;;;1544816;76;761;-52
2023/09/08 08:14:47;;;;;;;;;;;24.60;51.00;;;;;;1546926;75;1453;-52
2023/09/08 08:16:49;;;;;;;;;;;24.60;50.50;;;;;;1543893;75;777;-52
2023/09/08 08:18:50;;;;;;;;;;;24.60;50.70;;;;;;1539347;75;792;-52
2023/09/08 08:20:52;;;;;;;;;;;24.60;51.00;;;;;;1541534;76;1130;-53
2023/09/08 08:22:54;;;;;;;;;;;24.60;50.60;;;;;;1542065;75;774;-54
2023/09/08 08:24:56;;;;;;;;;;;24.60;51.00;;;;;;1545828;75;788;-52
2023/09/08 08:26:58;;;;;;;;;;;24.60;50.40;;;;;;1545957;75;804;-53
2023/09/08 08:29:00;;;;;;;;;;;24.60;50.50;;;;;;1540527;75;1941;-53
2023/09/08 08:31:02;;;;;;;;;;;24.60;50.60;;;;;;1555889;75;1181;-54
2023/09/08 08:33:04;;;;;;;;;;;24.60;50.70;;;;;;1547042;75;801;-53
2023/09/08 08:35:07;;;;;;;;;;;24.70;50.80;;;;;;1550143;75;793;-54
2023/09/08 08:37:09;;;;;;;;;;;24.60;50.70;;;;;;1549117;75;713;-53
2023/09/08 08:39:10;;;;;;;;;;;24.60;50.50;;;;;;1545944;75;772;-52
2023/09/08 08:41:12;;;;;;;;;;;24.60;50.50;;;;;;1545099;75;1160;-54
2023/09/08 08:43:14;;;;;;;;;;;24.60;50.50;;;;;;1539746;75;1339;-54
2023/09/08 08:45:19;;;;;;;;;;;24.60;50.70;;;;;;1542992;75;682;-54
2023/09/08 08:47:20;;;;;;;;;;;24.60;50.90;;;;;;1547611;75;1980;-54
2023/09/08 08:49:22;;;;;;;;;;;24.70;51.30;;;;;;1552413;75;810;-54
2023/09/08 08:51:24;;;;;;;;;;;24.60;50.70;;;;;;1543527;75;1161;-52
2023/09/08 08:53:26;;;;;;;;;;;24.60;50.80;;;;;;1551205;75;712;-53
2023/09/08 08:55:28;;;;;;;;;;;24.60;51.00;;;;;;1548167;75;671;-52
2023/09/08 08:57:30;;;;;;;;;;;24.60;51.20;;;;;;1554146;75;1539;-53
2023/09/08 08:59:32;;;;;;;;;;;24.60;51.00;;;;;;1550093;75;1274;-52
2023/09/08 09:01:34;;;;;;;;;;;24.70;51.10;;;;;;1549303;75;781;-52
2023/09/08 09:03:37;;;;;;;;;;;24.60;51.00;;;;;;1550611;75;803;-53
2023/09/08 09:05:39;;;;;;;;;;;24.60;51.10;;;;;;1540158;75;684;-53
2023/09/08 09:07:44;;;;;;;;;;;24.60;51.20;;;;;;1550444;75;1962;-54
2023/09/08 09:09:46;;;;;;;;;;;24.60;51.40;;;;;;1550389;75;1246;-52
2023/09/08 09:11:48;;;;;;;;;;;24.60;51.20;;;;;;1549799;75;1528;-52
2023/09/08 09:13:50;;;;;;;;;;;24.60;51.30;;;;;;1546682;75;732;-54
2023/09/08 09:15:52;;;;;;;;;;;24.60;51.30;;;;;;1548847;76;750;-54
2023/09/08 09:17:55;;;;;;;;;;;24.60;51.20;;;;;;1549115;75;777;-53
2023/09/08 09:20:14;;;;;;;;;;;24.60;51.30;;;;;;1539504;75;1122;-52
2023/09/08 09:22:17;;;;;;;;;;;24.60;51.30;;;;;;1547282;75;743;-52
2023/09/08 09:24:21;;;;;;;;;;;24.60;51.20;;;;;;1548442;75;1542;-52
2023/09/08 09:26:25;;;;;;;;;;;24.60;51.10;;;;;;1545614;76;1771;-52
2023/09/08 09:28:29;;;;;;;;;;;24.60;51.30;;;;;;1550986;75;1932;-53
2023/09/08 09:30:32;;;;;;;;;;;24.60;51.30;;;;;;1547051;75;1550;-54
2023/09/08 09:32:35;;;;;;;;;;;24.60;51.50;;;;;;1535865;75;1072;-53
2023/09/08 09:34:37;;;;;;;;;;;24.50;51.50;;;;;;1548056;75;742;-53
2023/09/08 09:36:40;;;;;;;;;;;24.50;51.40;;;;;;1543606;75;816;-52
2023/09/08 09:38:42;;;;;;;;;;;24.60;51.30;;;;;;1548743;75;1284;-53
2023/09/08 09:40:44;;;;;;;;;;;24.60;51.50;;;;;;1543338;75;1123;-53
2023/09/08 09:42:46;;;;;;;;;;;24.50;51.70;;;;;;1549730;75;794;-54
2023/09/08 09:44:49;;;;;;;;;;;24.60;51.70;;;;;;1540841;75;724;-53
2023/09/08 09:46:53;;;;;;;;;;;24.60;51.80;;;;;;1541660;75;767;-52
2023/09/08 09:49:00;;;;;;;;;;;24.60;51.90;;;;;;1546980;75;1940;-52
2023/09/08 09:50:59;;;;;;;;;;;24.60;51.90;;;;;;1545177;75;1590;-54
2023/09/08 09:53:01;;;;;;;;;;;24.60;52.00;;;;;;1545339;75;1399;-52
2023/09/08 09:55:03;;;;;;;;;;;24.60;52.10;;;;;;1558213;75;710;-52
2023/09/08 09:57:05;;;;;;;;;;;24.50;52.10;;;;;;1542159;76;773;-54
2023/09/08 09:59:09;;;;;;;;;;;24.50;52.30;;;;;;1542165;75;765;-53
2023/09/08 10:01:11;;;;;;;;;;;24.60;52.30;;;;;;1547812;75;1476;-52
2023/09/08 10:03:13;;;;;;;;;;;24.50;52.50;;;;;;1548646;75;765;-54
2023/09/08 10:05:15;;;;;;;;;;;24.60;52.60;;;;;;1536177;75;1377;-52
2023/09/08 10:07:17;;;;;;;;;;;24.60;52.60;;;;;;1548123;75;1387;-52
2023/09/08 10:09:19;;;;;;;;;;;24.60;52.80;;;;;;1548342;75;1952;-54
2023/09/08 10:11:22;;;;;;;;;;;24.60;52.70;;;;;;1548017;75;1373;-52
2023/09/08 10:13:24;;;;;;;;;;;24.60;52.80;;;;;;1548058;75;1331;-53
2023/09/08 10:15:26;;;;;;;;;;;24.50;53.00;;;;;;1549725;75;1105;-54
2023/09/08 10:17:28;;;;;;;;;;;24.50;53.10;;;;;;1549417;75;1496;-53
2023/09/08 10:19:30;;;;;;;;;;;24.50;53.10;;;;;;1547431;75;1419;-53
2023/09/08 10:21:32;;;;;;;;;;;24.50;53.10;;;;;;1546247;75;1409;-52
2023/09/08 10:23:46;;;;;;;;;;;24.50;53.30;;;;;;1542548;75;1403;-54
2023/09/08 10:25:54;;;;;;;;;;;24.50;53.40;;;;;;1543345;75;1623;-52
2023/09/08 10:27:51;;;;;;;;;;;24.50;53.40;;;;;;1543881;76;1941;-52
2023/09/08 10:29:53;;;;;;;;;;;24.50;53.50;;;;;;1548738;75;1156;-53
2023/09/08 10:31:55;;;;;;;;;;;24.50;53.60;;;;;;1547919;75;712;-53
2023/09/08 10:33:57;;;;;;;;;;;24.50;53.70;;;;;;1548961;75;801;-54
2023/09/08 10:36:00;;;;;;;;;;;24.50;53.70;;;;;;1531743;75;1441;-52
2023/09/08 10:38:20;;;;;;;;;;;24.50;53.80;;;;;;1542415;75;796;-53
2023/09/08 10:40:22;;;;;;;;;;;24.50;54.00;;;;;;1547210;75;1161;-53
2023/09/08 10:42:28;;;;;;;;;;;24.50;54.00;;;;;;1542445;75;676;-53
2023/09/08 10:44:32;;;;;;;;;;;24.40;53.90;;;;;;1533841;75;760;-54
2023/09/08 10:46:34;;;;;;;;;;;24.40;53.90;;;;;;1547082;75;1681;-52
2023/09/08 10:48:45;;;;;;;;;;;24.50;54.10;;;;;;1546015;75;1940;-52
2023/09/08 10:50:47;;;;;;;;;;;24.50;54.20;;;;;;1549777;75;1185;-53
2023/09/08 10:53:10;;;;;;;;;;;24.40;54.20;;;;;;1551166;75;677;-53
2023/09/08 10:55:15;;;;;;;;;;;24.40;54.40;;;;;;1547828;75;919;-53
2023/09/08 10:57:17;;;;;;;;;;;24.40;54.50;;;;;;1546381;75;686;-52
2023/09/08 10:59:20;;;;;;;;;;;24.40;54.60;;;;;;1547635;75;812;-52
2023/09/08 11:01:30;;;;;;;;;;;24.40;54.70;;;;;;1541352;76;1548;-53
2023/09/08 11:03:28;;;;;;;;;;;24.50;54.80;;;;;;1540135;75;1487;-53
2023/09/08 11:05:32;;;;;;;;;;;24.40;54.90;;;;;;1543109;75;725;-53
2023/09/08 11:07:34;;;;;;;;;;;24.40;54.90;;;;;;1552780;75;704;-52
2023/09/08 11:09:36;;;;;;;;;;;24.40;55.10;;;;;;1541670;75;1953;-54
2023/09/08 11:11:38;;;;;;;;;;;24.40;55.00;;;;;;1546700;75;719;-52
2023/09/08 11:13:40;;;;;;;;;;;24.40;55.10;;;;;;1507801;77;766;-53
2023/09/08 11:15:42;;;;;;;;;;;24.30;55.20;;;;;;1549436;76;705;-53
2023/09/08 11:17:44;;;;;;;;;;;24.30;55.20;;;;;;1546790;75;1534;-53
2023/09/08 11:19:47;;;;;;;;;;;24.30;55.30;;;;;;1539309;75;1166;-52
2023/09/08 11:21:49;;;;;;;;;;;24.40;55.30;;;;;;1548924;75;748;-53
2023/09/08 11:23:51;;;;;;;;;;;24.30;55.30;;;;;;1543656;75;718;-52
2023/09/08 11:25:53;;;;;;;;;;;24.40;55.50;;;;;;1547493;75;733;-52
2023/09/08 11:27:55;;;;;;;;;;;24.30;55.50;;;;;;1540542;75;709;-52
2023/09/08 11:29:57;;;;;;;;;;;24.30;55.60;;;;;;1549335;75;1943;-52
2023/09/08 11:31:59;;;;;;;;;;;24.30;55.70;;;;;;1546020;75;1433;-53
2023/09/08 11:34:01;;;;;;;;;;;24.30;55.70;;;;;;1541445;75;665;-51
2023/09/08 11:36:03;;;;;;;;;;;24.30;55.70;;;;;;1546150;75;699;-54
2023/09/08 11:38:05;;;;;;;;;;;24.30;55.80;;;;;;1540950;75;690;-54
2023/09/08 11:40:11;;;;;;;;;;;24.30;55.90;;;;;;1536959;75;1177;-54
2023/09/08 11:42:13;;;;;;;;;;;24.30;56.10;;;;;;1542243;75;1568;-54
2023/09/08 11:44:16;;;;;;;;;;;24.40;56.10;;;;;;1543793;75;703;-54
2023/09/08 11:46:18;;;;;;;;;;;24.30;56.30;;;;;;1548842;75;1398;-53
2023/09/08 11:48:20;;;;;;;;;;;24.30;56.30;;;;;;1531923;75;1952;-53
2023/09/08 11:50:23;;;;;;;;;;;24.30;56.50;;;;;;1547309;75;1168;-54
2023/09/08 11:52:25;;;;;;;;;;;24.30;56.50;;;;;;1537421;75;751;-54
2023/09/08 11:54:26;;;;;;;;;;;24.30;56.80;;;;;;1550150;75;688;-54
2023/09/08 11:56:28;;;;;;;;;;;24.30;56.70;;;;;;1537536;75;736;-51
2023/09/08 11:58:30;;;;;;;;;;;24.30;56.90;;;;;;1543722;75;807;-54
2023/09/08 12:00:32;;;;;;;;;;;24.20;56.80;;;;;;1543522;75;1426;-54
2023/09/08 12:02:36;;;;;;;;;;;24.30;56.90;;;;;;1540003;75;720;-52
2023/09/08 12:04:38;;;;;;;;;;;24.20;57.10;;;;;;1546509;75;2044;-53
2023/09/08 12:06:40;;;;;;;;;;;24.20;57.20;;;;;;1546598;75;664;-52